createdAt,value
2017-03-25T00:01:00.399Z,21.54
2017-03-25T00:02:10.325Z,21.47
2017-03-25T00:03:20.630Z,21.5
2017-03-25T00:04:30.848Z,21.49
2017-03-25T00:05:40.805Z,21.5
2017-03-25T00:06:50.450Z,21.46
2017-03-25T00:08:00.049Z,21.49
2017-03-25T00:09:10.380Z,21.52
2017-03-25T00:10:20.599Z,21.49
2017-03-25T00:11:30.516Z,21.49
2017-03-25T00:12:40.464Z,21.46
2017-03-25T00:13:50.072Z,21.4
2017-03-25T00:15:00.131Z,21.42
2017-03-25T00:16:10.044Z,21.5
2017-03-25T00:17:19.377Z,21.42
2017-03-25T00:18:29.308Z,21.37
2017-03-25T00:19:38.656Z,21.44
2017-03-25T00:20:48.751Z,21.46
2017-03-25T00:21:58.982Z,21.4
2017-03-25T00:23:08.606Z,21.42
2017-03-25T00:24:18.864Z,21.42
2017-03-25T00:25:28.780Z,21.42
2017-03-25T00:26:38.855Z,21.4
2017-03-25T00:27:48.455Z,21.37
2017-03-25T00:28:58.656Z,21.42
2017-03-25T00:30:08.573Z,21.46
2017-03-25T00:31:18.498Z,21.42
2017-03-25T00:32:28.580Z,21.43
2017-03-25T00:33:38.825Z,21.43
2017-03-25T00:34:49.063Z,21.43
2017-03-25T00:35:59.280Z,21.44
2017-03-25T00:37:09.213Z,21.42
2017-03-25T00:38:18.970Z,21.42
2017-03-25T00:39:35.165Z,21.46
2017-03-25T00:40:45.397Z,21.38
2017-03-25T00:41:55.313Z,21.34
2017-03-25T00:43:05.529Z,21.47
2017-03-25T00:44:15.582Z,21.43
2017-03-25T00:45:25.495Z,21.44
2017-03-25T00:46:35.153Z,21.31
2017-03-25T00:47:44.747Z,21.37
2017-03-25T00:48:54.360Z,21.47
2017-03-25T00:50:04.380Z,21.34
2017-03-25T00:51:14.019Z,21.35
2017-03-25T00:52:23.972Z,21.37
2017-03-25T00:53:33.910Z,21.4
2017-03-25T00:54:43.842Z,21.37
2017-03-25T00:55:53.609Z,21.37
2017-03-25T00:57:03.864Z,21.37
2017-03-25T00:58:14.098Z,21.37
2017-03-25T00:59:24.335Z,21.37
2017-03-25T01:00:33.974Z,21.38
2017-03-25T01:01:44.792Z,21.4
2017-03-25T01:02:54.795Z,21.35
2017-03-25T01:04:04.725Z,21.37
2017-03-25T01:05:14.361Z,21.44
2017-03-25T01:06:23.993Z,21.35
2017-03-25T01:07:34.187Z,21.35
2017-03-25T01:08:43.792Z,21.35
2017-03-25T01:09:52.806Z,21.37
2017-03-25T01:11:03.060Z,21.42
2017-03-25T01:12:12.388Z,21.37
2017-03-25T01:13:22.626Z,21.38
2017-03-25T01:14:31.959Z,21.32
2017-03-25T01:15:42.207Z,21.38
2017-03-25T01:16:52.465Z,21.32
2017-03-25T01:18:02.098Z,21.37
2017-03-25T01:19:11.577Z,21.34
2017-03-25T01:20:21.211Z,21.35
2017-03-25T01:21:31.166Z,21.35
2017-03-25T01:22:41.084Z,21.29
2017-03-25T01:23:50.402Z,21.35
2017-03-25T01:25:00.132Z,21.35
2017-03-25T01:26:10.042Z,21.29
2017-03-25T01:27:20.310Z,21.31
2017-03-25T01:28:30.575Z,21.28
2017-03-25T01:29:40.514Z,21.29
2017-03-25T01:30:50.889Z,21.32
2017-03-25T01:32:00.824Z,21.31
2017-03-25T01:33:11.030Z,21.38
2017-03-25T01:34:20.666Z,21.29
2017-03-25T01:35:30.609Z,21.24
2017-03-25T01:36:40.720Z,21.34
2017-03-25T01:37:50.946Z,21.35
2017-03-25T01:39:00.866Z,21.25
2017-03-25T01:40:10.486Z,21.31
2017-03-25T01:41:20.408Z,21.32
2017-03-25T01:42:30.608Z,21.29
2017-03-25T01:43:40.853Z,21.25
2017-03-25T01:44:50.772Z,21.24
2017-03-25T01:46:00.688Z,21.34
2017-03-25T01:47:10.308Z,21.19
2017-03-25T01:48:20.366Z,21.24
2017-03-25T01:49:30.581Z,21.25
2017-03-25T01:50:40.806Z,21.27
2017-03-25T01:51:50.731Z,21.27
2017-03-25T01:53:00.335Z,21.27
2017-03-25T01:54:10.718Z,21.28
2017-03-25T01:55:20.629Z,21.29
2017-03-25T01:56:30.846Z,21.28
2017-03-25T01:57:40.750Z,21.29
2017-03-25T01:58:50.672Z,21.27
2017-03-25T02:00:00.623Z,21.27
2017-03-25T02:01:10.227Z,21.27
2017-03-25T02:02:20.181Z,21.27
2017-03-25T02:03:30.399Z,21.22
2017-03-25T02:04:40.611Z,21.22
2017-03-25T02:05:50.768Z,21.22
2017-03-25T02:07:00.062Z,21.24
2017-03-25T02:08:10.280Z,21.29
2017-03-25T02:09:20.491Z,21.21
2017-03-25T02:10:30.103Z,21.19
2017-03-25T02:11:40.306Z,21.21
2017-03-25T02:12:50.530Z,21.14
2017-03-25T02:14:00.433Z,21.22
2017-03-25T02:15:10.683Z,21.19
2017-03-25T02:16:19.968Z,21.22
2017-03-25T02:17:29.977Z,21.19
2017-03-25T02:18:40.193Z,21.14
2017-03-25T02:19:49.489Z,21.19
2017-03-25T02:20:59.087Z,21.22
2017-03-25T02:22:09.301Z,21.16
2017-03-25T02:23:18.912Z,21.21
2017-03-25T02:24:27.913Z,21.12
2017-03-25T02:25:38.131Z,21.16
2017-03-25T02:26:48.048Z,21.21
2017-03-25T02:27:57.950Z,21.16
2017-03-25T02:29:08.319Z,21.27
2017-03-25T02:30:18.535Z,21.13
2017-03-25T02:31:28.448Z,21.16
2017-03-25T02:32:38.689Z,21.19
2017-03-25T02:33:48.597Z,21.13
2017-03-25T02:34:58.653Z,21.13
2017-03-25T02:36:07.939Z,21.13
2017-03-25T02:37:18.159Z,21.13
2017-03-25T02:38:28.132Z,21.22
2017-03-25T02:39:38.053Z,21.1
2017-03-25T02:40:47.423Z,21.12
2017-03-25T02:41:57.704Z,21.14
2017-03-25T02:43:07.623Z,21.13
2017-03-25T02:44:17.907Z,21.14
2017-03-25T02:45:27.264Z,21.14
2017-03-25T02:46:36.724Z,21.07
2017-03-25T02:47:46.706Z,21.14
2017-03-25T02:48:56.614Z,21.16
2017-03-25T02:50:05.964Z,21.06
2017-03-25T02:51:15.610Z,21.14
2017-03-25T02:52:25.428Z,21.09
2017-03-25T02:53:35.398Z,21.14
2017-03-25T02:54:45.353Z,21.04
2017-03-25T02:55:55.312Z,21.09
2017-03-25T02:57:05.577Z,21.04
2017-03-25T02:58:15.986Z,21.03
2017-03-25T02:59:26.276Z,21.04
2017-03-25T03:00:36.008Z,21.13
2017-03-25T03:01:46.040Z,21.09
2017-03-25T03:02:56.368Z,21.03
2017-03-25T03:04:06.493Z,21.01
2017-03-25T03:05:16.421Z,21.04
2017-03-25T03:06:26.368Z,21.09
2017-03-25T03:07:36.618Z,21.12
2017-03-25T03:08:46.279Z,21.06
2017-03-25T03:09:56.890Z,21.03
2017-03-25T03:11:06.861Z,21.04
2017-03-25T03:12:16.837Z,21.04
2017-03-25T03:13:27.078Z,21.06
2017-03-25T03:14:37.038Z,21.06
2017-03-25T03:15:46.903Z,21.06
2017-03-25T03:16:57.127Z,21.1
2017-03-25T03:18:07.380Z,21.04
2017-03-25T03:19:17.991Z,21.07
2017-03-25T03:20:27.339Z,21.04
2017-03-25T03:21:37.748Z,21.06
2017-03-25T03:22:47.721Z,21.09
2017-03-25T03:23:57.687Z,21.03
2017-03-25T03:25:07.635Z,21.06
2017-03-25T03:26:17.280Z,21.07
2017-03-25T03:27:27.682Z,21.04
2017-03-25T03:28:37.950Z,21.03
2017-03-25T03:29:48.207Z,21.06
2017-03-25T03:30:58.463Z,20.98
2017-03-25T03:32:08.416Z,21.07
2017-03-25T03:33:18.260Z,20.99
2017-03-25T03:34:28.551Z,21.06
2017-03-25T03:35:38.538Z,21.03
2017-03-25T03:36:48.766Z,21.1
2017-03-25T03:37:59.076Z,21.04
2017-03-25T03:39:09.186Z,21.06
2017-03-25T03:40:19.119Z,20.97
2017-03-25T03:41:28.764Z,21.06
2017-03-25T03:42:38.716Z,21.06
2017-03-25T03:43:48.982Z,21.06
2017-03-25T03:44:59.531Z,20.95
2017-03-25T03:46:09.472Z,20.98
2017-03-25T03:47:19.138Z,21.04
2017-03-25T03:48:29.356Z,20.94
2017-03-25T03:49:39.597Z,20.97
2017-03-25T03:50:49.843Z,21.01
2017-03-25T03:51:59.766Z,21.03
2017-03-25T03:53:10.013Z,21.01
2017-03-25T03:54:19.673Z,20.97
2017-03-25T03:55:29.600Z,20.97
2017-03-25T03:56:39.709Z,20.94
2017-03-25T03:57:49.324Z,20.98
2017-03-25T03:58:59.280Z,20.97
2017-03-25T04:00:09.243Z,20.92
2017-03-25T04:01:19.498Z,20.98
2017-03-25T04:02:30.053Z,20.95
2017-03-25T04:03:39.674Z,20.98
2017-03-25T04:04:49.594Z,20.98
2017-03-25T04:05:59.535Z,20.99
2017-03-25T04:07:09.166Z,20.94
2017-03-25T04:08:19.556Z,20.97
2017-03-25T04:09:29.492Z,20.92
2017-03-25T04:10:39.124Z,20.94
2017-03-25T04:11:49.385Z,20.89
2017-03-25T04:12:58.694Z,20.99
2017-03-25T04:14:08.802Z,20.98
2017-03-25T04:15:18.767Z,21.03
2017-03-25T04:16:28.674Z,20.92
2017-03-25T04:17:38.641Z,20.95
2017-03-25T04:18:48.927Z,20.92
2017-03-25T04:19:59.525Z,20.95
2017-03-25T04:21:10.150Z,21.01
2017-03-25T04:22:20.082Z,20.92
2017-03-25T04:23:30.014Z,20.92
2017-03-25T04:24:40.272Z,20.99
2017-03-25T04:25:50.182Z,20.94
2017-03-25T04:27:00.118Z,20.97
2017-03-25T04:28:10.368Z,20.92
2017-03-25T04:29:19.701Z,20.98
2017-03-25T04:30:29.322Z,20.92
2017-03-25T04:31:39.556Z,20.98
2017-03-25T04:32:50.158Z,20.92
2017-03-25T04:34:00.396Z,20.97
2017-03-25T04:35:09.714Z,20.94
2017-03-25T04:36:19.960Z,20.95
2017-03-25T04:37:30.627Z,20.91
2017-03-25T04:38:40.252Z,20.94
2017-03-25T04:39:50.542Z,20.92
2017-03-25T04:41:00.191Z,20.92
2017-03-25T04:42:10.133Z,20.89
2017-03-25T04:43:20.952Z,20.89
2017-03-25T04:44:30.559Z,20.91
2017-03-25T04:45:40.512Z,20.92
2017-03-25T04:46:50.155Z,20.91
2017-03-25T04:48:00.394Z,20.85
2017-03-25T04:49:10.438Z,20.99
2017-03-25T04:50:20.045Z,20.89
2017-03-25T04:51:29.670Z,20.91
2017-03-25T04:52:39.309Z,20.84
2017-03-25T04:53:48.989Z,20.85
2017-03-25T04:54:59.532Z,20.91
2017-03-25T04:56:09.509Z,20.82
2017-03-25T04:57:19.743Z,20.85
2017-03-25T04:58:29.970Z,20.84
2017-03-25T04:59:39.908Z,20.84
2017-03-25T05:00:50.554Z,20.84
2017-03-25T05:02:00.477Z,20.84
2017-03-25T05:03:10.097Z,20.82
2017-03-25T05:04:20.022Z,20.85
2017-03-25T05:05:29.661Z,20.82
2017-03-25T05:06:40.141Z,20.8
2017-03-25T05:07:50.465Z,20.92
2017-03-25T05:09:00.397Z,20.82
2017-03-25T05:10:10.037Z,20.85
2017-03-25T05:11:20.318Z,20.87
2017-03-25T05:12:30.615Z,20.84
2017-03-25T05:13:40.607Z,20.82
2017-03-25T05:14:50.855Z,20.88
2017-03-25T05:16:00.199Z,20.91
2017-03-25T05:17:10.418Z,20.85
2017-03-25T05:18:21.431Z,20.91
2017-03-25T05:19:31.662Z,20.87
2017-03-25T05:20:41.608Z,20.85
2017-03-25T05:21:51.221Z,20.82
2017-03-25T05:23:01.139Z,20.79
2017-03-25T05:24:11.647Z,20.88
2017-03-25T05:25:21.873Z,20.79
2017-03-25T05:26:31.830Z,20.88
2017-03-25T05:27:42.104Z,20.91
2017-03-25T05:28:52.323Z,20.94
2017-03-25T05:30:02.014Z,20.85
2017-03-25T05:31:12.253Z,20.88
2017-03-25T05:32:22.473Z,20.84
2017-03-25T05:33:32.720Z,20.88
2017-03-25T05:34:42.349Z,20.87
2017-03-25T05:35:52.632Z,20.85
2017-03-25T05:37:02.865Z,20.88
2017-03-25T05:38:12.816Z,20.82
2017-03-25T05:39:22.862Z,20.94
2017-03-25T05:40:32.792Z,20.82
2017-03-25T05:41:43.357Z,20.89
2017-03-25T05:42:53.295Z,20.82
2017-03-25T05:44:02.639Z,20.85
2017-03-25T05:45:12.280Z,20.92
2017-03-25T05:46:22.586Z,20.89
2017-03-25T05:47:32.822Z,20.89
2017-03-25T05:48:42.798Z,20.92
2017-03-25T05:49:52.744Z,20.95
2017-03-25T05:51:02.063Z,20.95
2017-03-25T05:52:12.321Z,20.94
2017-03-25T05:53:22.103Z,20.92
2017-03-25T05:54:32.097Z,20.94
2017-03-25T05:55:42.322Z,20.95
2017-03-25T05:56:52.597Z,20.97
2017-03-25T05:58:02.867Z,20.98
2017-03-25T05:59:12.684Z,20.99
2017-03-25T06:00:21.685Z,20.99
2017-03-25T06:01:31.046Z,20.94
2017-03-25T06:02:41.046Z,21.06
2017-03-25T06:03:51.006Z,20.99
2017-03-25T06:05:00.940Z,21.03
2017-03-25T06:06:10.573Z,21.03
2017-03-25T06:07:20.225Z,21.03
2017-03-25T06:08:30.198Z,21.07
2017-03-25T06:09:40.172Z,21.04
2017-03-25T06:10:50.707Z,21.13
2017-03-25T06:12:00.338Z,21.12
2017-03-25T06:13:10.237Z,21.1
2017-03-25T06:14:20.164Z,21.09
2017-03-25T06:15:30.063Z,21.16
2017-03-25T06:16:40.436Z,21.14
2017-03-25T06:17:50.348Z,21.16
2017-03-25T06:19:00.575Z,21.19
2017-03-25T06:20:10.183Z,21.12
2017-03-25T06:21:19.812Z,21.16
2017-03-25T06:22:29.505Z,21.27
2017-03-25T06:23:39.730Z,21.16
2017-03-25T06:24:49.651Z,21.25
2017-03-25T06:25:59.879Z,21.22
2017-03-25T06:27:09.791Z,21.21
2017-03-25T06:28:19.568Z,21.24
2017-03-25T06:29:29.780Z,21.21
2017-03-25T06:30:39.773Z,21.24
2017-03-25T06:31:50.139Z,21.19
2017-03-25T06:33:00.471Z,21.24
2017-03-25T06:34:11.044Z,21.22
2017-03-25T06:35:21.057Z,21.25
2017-03-25T06:36:31.279Z,21.32
2017-03-25T06:37:41.212Z,21.27
2017-03-25T06:38:51.467Z,21.25
2017-03-25T06:40:02.465Z,21.34
2017-03-25T06:41:12.061Z,21.25
2017-03-25T06:42:21.979Z,21.31
2017-03-25T06:43:32.213Z,21.25
2017-03-25T06:44:42.131Z,21.31
2017-03-25T06:45:53.452Z,21.29
2017-03-25T06:47:03.677Z,21.31
2017-03-25T06:48:13.888Z,21.25
2017-03-25T06:49:23.861Z,21.35
2017-03-25T06:50:34.078Z,21.29
2017-03-25T06:51:44.444Z,21.37
2017-03-25T06:52:54.725Z,21.35
2017-03-25T06:54:04.655Z,21.35
2017-03-25T06:55:14.292Z,21.35
2017-03-25T06:56:23.910Z,21.38
2017-03-25T06:57:34.164Z,21.4
2017-03-25T06:58:44.101Z,21.42
2017-03-25T06:59:54.032Z,21.4
2017-03-25T07:01:03.967Z,21.38
2017-03-25T07:02:14.210Z,21.38
2017-03-25T07:03:24.404Z,21.37
2017-03-25T07:04:34.006Z,21.4
2017-03-25T07:05:43.928Z,21.31
2017-03-25T07:06:53.556Z,21.31
2017-03-25T07:08:03.174Z,21.32
2017-03-25T07:09:12.970Z,21.4
2017-03-25T07:10:22.889Z,21.4
2017-03-25T07:11:32.517Z,21.34
2017-03-25T07:12:42.472Z,21.43
2017-03-25T07:13:52.410Z,21.38
2017-03-25T07:15:02.917Z,21.37
2017-03-25T07:16:12.855Z,21.43
2017-03-25T07:17:22.152Z,21.49
2017-03-25T07:18:32.056Z,21.35
2017-03-25T07:19:41.107Z,21.34
2017-03-25T07:20:51.080Z,21.34
2017-03-25T07:22:01.051Z,21.38
2017-03-25T07:23:10.666Z,21.46
2017-03-25T07:24:20.610Z,21.42
2017-03-25T07:25:30.538Z,21.4
2017-03-25T07:26:40.401Z,21.46
2017-03-25T07:27:50.686Z,21.42
2017-03-25T07:29:00.617Z,21.42
2017-03-25T07:30:10.835Z,21.43
2017-03-25T07:31:21.104Z,21.47
2017-03-25T07:32:30.854Z,21.42
2017-03-25T07:33:40.782Z,21.42
2017-03-25T07:34:50.698Z,21.43
2017-03-25T07:36:00.679Z,21.43
2017-03-25T07:37:10.623Z,21.49
2017-03-25T07:38:20.945Z,21.4
2017-03-25T07:39:30.866Z,21.37
2017-03-25T07:40:41.094Z,21.43
2017-03-25T07:41:50.399Z,21.49
2017-03-25T07:43:00.619Z,21.5
2017-03-25T07:44:11.087Z,21.53
2017-03-25T07:45:21.330Z,21.49
2017-03-25T07:46:31.242Z,21.59
2017-03-25T07:47:41.487Z,21.59
2017-03-25T07:48:51.715Z,21.62
2017-03-25T07:50:02.092Z,21.67
2017-03-25T07:51:11.697Z,21.69
2017-03-25T07:52:21.297Z,21.72
2017-03-25T07:53:30.592Z,21.75
2017-03-25T07:54:40.217Z,21.79
2017-03-25T07:55:50.450Z,21.91
2017-03-25T07:57:00.155Z,21.98
2017-03-25T07:58:10.069Z,21.98
2017-03-25T07:59:19.398Z,22.02
2017-03-25T08:00:29.097Z,22.07
2017-03-25T08:01:40.018Z,22.12
2017-03-25T08:02:49.962Z,22.22
2017-03-25T08:04:00.575Z,22.24
2017-03-25T08:05:10.500Z,22.28
2017-03-25T08:06:21.105Z,22.3
2017-03-25T08:07:31.359Z,22.31
2017-03-25T08:08:41.061Z,22.36
2017-03-25T08:09:51.232Z,22.46
2017-03-25T08:11:01.468Z,22.43
2017-03-25T08:12:11.697Z,22.42
2017-03-25T08:13:22.065Z,22.43
2017-03-25T08:14:31.988Z,22.57
2017-03-25T08:15:41.920Z,22.55
2017-03-25T08:16:52.206Z,22.55
2017-03-25T08:18:02.128Z,22.6
2017-03-25T08:19:12.648Z,22.55
2017-03-25T08:20:22.584Z,22.62
2017-03-25T08:21:32.493Z,22.61
2017-03-25T08:22:42.713Z,22.7
2017-03-25T08:23:52.944Z,22.68
2017-03-25T08:25:02.890Z,22.72
2017-03-25T08:26:11.599Z,22.72
2017-03-25T08:27:21.577Z,22.73
2017-03-25T08:28:31.195Z,22.82
2017-03-25T08:29:41.471Z,22.82
2017-03-25T08:30:51.728Z,22.82
2017-03-25T08:32:01.646Z,22.95
2017-03-25T08:33:11.873Z,22.92
2017-03-25T08:34:22.122Z,22.98
2017-03-25T08:35:32.353Z,22.95
2017-03-25T08:36:42.605Z,23.02
2017-03-25T08:37:51.900Z,23.01
2017-03-25T08:39:00.889Z,23.07
2017-03-25T08:40:10.493Z,23.17
2017-03-25T08:41:20.427Z,23.2
2017-03-25T08:42:30.692Z,23.19
2017-03-25T08:43:40.653Z,23.17
2017-03-25T08:44:50.657Z,23.19
2017-03-25T08:46:00.599Z,23.23
2017-03-25T08:47:10.827Z,23.31
2017-03-25T08:48:21.392Z,23.32
2017-03-25T08:49:31.319Z,23.43
2017-03-25T08:50:41.538Z,23.46
2017-03-25T08:51:51.456Z,23.55
2017-03-25T08:53:01.677Z,23.5
2017-03-25T08:54:11.428Z,23.58
2017-03-25T08:55:20.744Z,23.57
2017-03-25T08:56:30.966Z,23.65
2017-03-25T08:57:40.893Z,23.63
2017-03-25T08:58:51.146Z,23.6
2017-03-25T09:00:01.725Z,23.63
2017-03-25T09:01:11.650Z,23.66
2017-03-25T09:02:20.963Z,23.76
2017-03-25T09:03:30.879Z,23.68
2017-03-25T09:04:40.799Z,23.75
2017-03-25T09:05:51.321Z,23.73
2017-03-25T09:07:00.613Z,23.76
2017-03-25T09:08:10.857Z,23.83
2017-03-25T09:09:21.086Z,23.69
2017-03-25T09:10:31.007Z,23.76
2017-03-25T09:11:41.540Z,23.78
2017-03-25T09:12:51.153Z,23.78
2017-03-25T09:14:01.074Z,23.8
2017-03-25T09:15:10.387Z,23.9
2017-03-25T09:16:20.009Z,23.95
2017-03-25T09:17:30.480Z,23.91
2017-03-25T09:18:40.410Z,23.95
2017-03-25T09:19:50.629Z,24.03
2017-03-25T09:21:00.546Z,24.08
2017-03-25T09:22:10.769Z,24.05
2017-03-25T09:23:20.930Z,24.13
2017-03-25T09:24:30.540Z,24.08
2017-03-25T09:25:40.755Z,24.24
2017-03-25T09:26:50.675Z,24.12
2017-03-25T09:28:00.898Z,24.25
2017-03-25T09:29:11.265Z,24.25
2017-03-25T09:30:21.515Z,24.24
2017-03-25T09:31:31.744Z,24.31
2017-03-25T09:32:41.659Z,24.27
2017-03-25T09:33:51.576Z,24.3
2017-03-25T09:35:01.843Z,24.34
2017-03-25T09:36:11.154Z,24.34
2017-03-25T09:37:21.095Z,24.4
2017-03-25T09:38:31.716Z,24.32
2017-03-25T09:39:41.926Z,24.35
2017-03-25T09:40:52.443Z,24.31
2017-03-25T09:42:02.672Z,24.49
2017-03-25T09:43:12.294Z,24.34
2017-03-25T09:44:22.508Z,24.42
2017-03-25T09:45:32.409Z,24.34
2017-03-25T09:46:42.931Z,24.32
2017-03-25T09:47:53.138Z,24.35
2017-03-25T09:49:03.358Z,24.39
2017-03-25T09:50:13.278Z,24.37
2017-03-25T09:51:23.499Z,24.34
2017-03-25T09:52:33.705Z,24.3
2017-03-25T09:53:43.616Z,24.32
2017-03-25T09:54:53.832Z,24.34
2017-03-25T09:56:04.053Z,24.28
2017-03-25T09:57:13.967Z,24.31
2017-03-25T09:58:24.198Z,24.24
2017-03-25T09:59:34.099Z,24.16
2017-03-25T10:00:44.307Z,24.16
2017-03-25T10:01:53.603Z,24.08
2017-03-25T10:03:03.509Z,24.08
2017-03-25T10:04:13.229Z,24.1
2017-03-25T10:05:23.460Z,24.03
2017-03-25T10:06:33.366Z,24.06
2017-03-25T10:07:43.595Z,24.06
2017-03-25T10:08:53.536Z,24.02
2017-03-25T10:10:03.699Z,23.98
2017-03-25T10:11:13.007Z,23.93
2017-03-25T10:12:22.918Z,23.91
2017-03-25T10:13:32.831Z,23.9
2017-03-25T10:14:43.044Z,23.93
2017-03-25T10:15:52.183Z,23.9
2017-03-25T10:17:01.806Z,23.76
2017-03-25T10:18:11.726Z,23.79
2017-03-25T10:19:21.940Z,23.7
2017-03-25T10:20:32.151Z,23.76
2017-03-25T10:21:42.491Z,23.7
2017-03-25T10:22:52.711Z,23.76
2017-03-25T10:24:02.622Z,23.66
2017-03-25T10:25:12.846Z,23.68
2017-03-25T10:26:23.075Z,23.66
2017-03-25T10:27:32.784Z,23.61
2017-03-25T10:28:42.997Z,23.61
2017-03-25T10:29:52.897Z,23.55
2017-03-25T10:31:02.806Z,23.51
2017-03-25T10:32:12.720Z,23.51
2017-03-25T10:33:22.288Z,23.51
2017-03-25T10:34:32.209Z,23.53
2017-03-25T10:35:41.810Z,23.42
2017-03-25T10:36:51.462Z,23.4
2017-03-25T10:38:01.684Z,23.48
2017-03-25T10:39:11.734Z,23.47
2017-03-25T10:40:21.957Z,23.39
2017-03-25T10:41:31.865Z,23.39
2017-03-25T10:42:42.081Z,23.42
2017-03-25T10:43:51.995Z,23.35
2017-03-25T10:45:02.251Z,23.27
2017-03-25T10:46:12.178Z,23.23
2017-03-25T10:47:21.170Z,23.25
2017-03-25T10:48:31.094Z,23.28
2017-03-25T10:49:41.012Z,23.31
2017-03-25T10:50:50.802Z,23.28
2017-03-25T10:52:00.397Z,23.2
2017-03-25T10:53:09.989Z,23.31
2017-03-25T10:54:20.233Z,23.28
2017-03-25T10:55:29.522Z,23.2
2017-03-25T10:56:39.289Z,23.25
2017-03-25T10:57:48.906Z,23.16
2017-03-25T10:58:58.505Z,23.15
2017-03-25T11:00:08.716Z,23.17
2017-03-25T11:01:18.639Z,23.15
2017-03-25T11:02:29.307Z,23.19
2017-03-25T11:03:38.594Z,23.15
2017-03-25T11:04:48.513Z,23.04
2017-03-25T11:05:58.422Z,23.15
2017-03-25T11:07:08.641Z,23.1
2017-03-25T11:08:19.004Z,23.05
2017-03-25T11:09:29.227Z,23.09
2017-03-25T11:10:38.507Z,23
2017-03-25T11:11:47.827Z,23.1
2017-03-25T11:12:58.040Z,23.07
2017-03-25T11:14:07.908Z,23.07
2017-03-25T11:15:17.526Z,23
2017-03-25T11:16:27.439Z,23.02
2017-03-25T11:17:37.366Z,23
2017-03-25T11:18:47.573Z,23.04
2017-03-25T11:19:57.602Z,23.05
2017-03-25T11:21:07.218Z,23.01
2017-03-25T11:22:17.472Z,23
2017-03-25T11:23:27.078Z,23.01
2017-03-25T11:24:37.287Z,23
2017-03-25T11:25:47.452Z,23.02
2017-03-25T11:26:57.668Z,23
2017-03-25T11:28:07.606Z,22.94
2017-03-25T11:29:17.841Z,22.94
2017-03-25T11:30:27.505Z,23
2017-03-25T11:31:38.063Z,22.94
2017-03-25T11:32:47.684Z,22.98
2017-03-25T11:33:57.899Z,22.97
2017-03-25T11:35:08.131Z,22.98
2017-03-25T11:36:17.744Z,23
2017-03-25T11:37:27.804Z,22.94
2017-03-25T11:38:38.071Z,22.86
2017-03-25T11:39:47.701Z,22.97
2017-03-25T11:40:57.630Z,22.95
2017-03-25T11:42:06.960Z,22.91
2017-03-25T11:43:16.977Z,22.91
2017-03-25T11:44:26.902Z,22.91
2017-03-25T11:45:36.806Z,22.91
2017-03-25T11:46:46.411Z,22.86
2017-03-25T11:47:55.415Z,22.86
2017-03-25T11:49:05.583Z,22.9
2017-03-25T11:50:15.811Z,22.83
2017-03-25T11:51:26.040Z,22.92
2017-03-25T11:52:35.976Z,22.88
2017-03-25T11:53:46.224Z,22.91
2017-03-25T11:54:56.382Z,22.9
2017-03-25T11:56:06.288Z,22.91
2017-03-25T11:57:16.203Z,22.92
2017-03-25T11:58:26.169Z,22.94
2017-03-25T11:59:36.081Z,22.9
2017-03-25T12:00:45.839Z,22.94
2017-03-25T12:01:55.439Z,22.97
2017-03-25T12:03:05.341Z,22.94
2017-03-25T12:04:15.590Z,22.97
2017-03-25T12:05:25.825Z,22.94
2017-03-25T12:06:35.258Z,23.02
2017-03-25T12:07:44.869Z,23
2017-03-25T12:08:55.094Z,23
2017-03-25T12:10:04.698Z,23.05
2017-03-25T12:11:14.663Z,23
2017-03-25T12:12:24.866Z,23.02
2017-03-25T12:13:34.179Z,23.09
2017-03-25T12:14:44.120Z,23.07
2017-03-25T12:15:53.735Z,23.05
2017-03-25T12:17:03.332Z,23.02
2017-03-25T12:18:13.819Z,23.09
2017-03-25T12:19:23.730Z,23.1
2017-03-25T12:20:33.966Z,22.97
2017-03-25T12:21:43.793Z,23.04
2017-03-25T12:22:54.021Z,23.02
2017-03-25T12:24:04.252Z,23.02
2017-03-25T12:25:13.868Z,23.07
2017-03-25T12:26:23.775Z,23.04
2017-03-25T12:27:34.028Z,23.01
2017-03-25T12:28:43.395Z,23.04
2017-03-25T12:29:53.681Z,23.05
2017-03-25T12:31:03.970Z,23.05
2017-03-25T12:32:14.188Z,23.01
2017-03-25T12:33:24.102Z,23.04
2017-03-25T12:34:34.323Z,23.09
2017-03-25T12:35:44.030Z,23.04
2017-03-25T12:36:54.240Z,23.09
2017-03-25T12:38:04.457Z,23.09
2017-03-25T12:39:14.672Z,23.02
2017-03-25T12:40:24.590Z,23.04
2017-03-25T12:41:34.600Z,23.04
2017-03-25T12:42:43.895Z,22.97
2017-03-25T12:43:54.116Z,23
2017-03-25T12:45:04.329Z,23.02
2017-03-25T12:46:13.933Z,23.01
2017-03-25T12:47:24.093Z,23
2017-03-25T12:48:34.316Z,22.95
2017-03-25T12:49:43.618Z,23.01
2017-03-25T12:50:53.225Z,22.95
2017-03-25T12:52:03.164Z,22.98
2017-03-25T12:53:13.157Z,22.94
2017-03-25T12:54:23.089Z,22.94
2017-03-25T12:55:33.318Z,22.98
2017-03-25T12:56:43.232Z,23
2017-03-25T12:57:53.165Z,22.91
2017-03-25T12:59:03.718Z,22.95
2017-03-25T13:00:13.945Z,22.94
2017-03-25T13:01:23.543Z,22.9
2017-03-25T13:02:33.453Z,22.98
2017-03-25T13:03:43.380Z,23
2017-03-25T13:04:53.755Z,22.95
2017-03-25T13:06:03.977Z,22.92
2017-03-25T13:07:14.589Z,22.92
2017-03-25T13:08:24.497Z,22.98
2017-03-25T13:09:34.106Z,22.97
2017-03-25T13:10:43.544Z,22.95
2017-03-25T13:11:53.168Z,22.91
2017-03-25T13:13:03.093Z,22.91
2017-03-25T13:14:13.009Z,22.92
2017-03-25T13:15:23.228Z,22.86
2017-03-25T13:16:33.548Z,22.9
2017-03-25T13:17:43.469Z,22.91
2017-03-25T13:18:53.076Z,22.83
2017-03-25T13:20:02.694Z,22.94
2017-03-25T13:21:12.296Z,22.9
2017-03-25T13:22:22.669Z,22.85
2017-03-25T13:23:32.576Z,22.82
2017-03-25T13:24:42.226Z,22.92
2017-03-25T13:25:52.127Z,22.86
2017-03-25T13:27:02.086Z,22.82
2017-03-25T13:28:12.290Z,22.85
2017-03-25T13:29:22.215Z,22.83
2017-03-25T13:30:32.453Z,22.82
2017-03-25T13:31:42.050Z,22.86
2017-03-25T13:32:51.963Z,22.83
2017-03-25T13:34:01.742Z,22.83
2017-03-25T13:35:11.648Z,22.82
2017-03-25T13:36:21.873Z,22.83
2017-03-25T13:37:31.799Z,22.82
2017-03-25T13:38:41.711Z,22.82
2017-03-25T13:39:51.875Z,22.85
2017-03-25T13:41:01.468Z,22.83
2017-03-25T13:42:11.369Z,22.8
2017-03-25T13:43:21.287Z,22.79
2017-03-25T13:44:31.221Z,22.8
2017-03-25T13:45:41.391Z,22.8
2017-03-25T13:46:51.613Z,22.85
2017-03-25T13:48:01.235Z,22.77
2017-03-25T13:49:11.148Z,22.88
2017-03-25T13:50:21.057Z,22.85
2017-03-25T13:51:30.901Z,22.79
2017-03-25T13:52:40.499Z,22.82
2017-03-25T13:53:50.104Z,22.77
2017-03-25T13:54:59.405Z,22.77
2017-03-25T13:56:09.304Z,22.79
2017-03-25T13:57:21.021Z,22.79
2017-03-25T13:58:31.246Z,22.77
2017-03-25T13:59:41.161Z,22.79
2017-03-25T14:00:51.408Z,22.82
2017-03-25T14:02:01.321Z,22.83
2017-03-25T14:03:11.791Z,22.76
2017-03-25T14:04:21.696Z,22.83
2017-03-25T14:05:31.610Z,22.76
2017-03-25T14:06:41.515Z,22.82
2017-03-25T14:07:51.125Z,22.77
2017-03-25T14:09:01.492Z,22.72
2017-03-25T14:10:11.715Z,22.76
2017-03-25T14:11:21.618Z,22.79
2017-03-25T14:12:31.528Z,22.76
2017-03-25T14:13:41.445Z,22.79
2017-03-25T14:14:51.757Z,22.77
2017-03-25T14:16:01.358Z,22.72
2017-03-25T14:17:10.967Z,22.7
2017-03-25T14:18:20.583Z,22.79
2017-03-25T14:19:30.500Z,22.79
2017-03-25T14:20:41.464Z,22.76
2017-03-25T14:21:51.371Z,22.8
2017-03-25T14:23:01.286Z,22.68
2017-03-25T14:24:11.213Z,22.76
2017-03-25T14:25:20.828Z,22.77
2017-03-25T14:26:31.542Z,22.73
2017-03-25T14:27:41.465Z,22.75
2017-03-25T14:28:50.762Z,22.73
2017-03-25T14:30:00.674Z,22.75
2017-03-25T14:31:10.314Z,22.75
2017-03-25T14:32:20.851Z,22.72
2017-03-25T14:33:31.071Z,22.76
2017-03-25T14:34:40.986Z,22.77
2017-03-25T14:35:50.900Z,22.79
2017-03-25T14:37:00.550Z,22.68
2017-03-25T14:38:11.123Z,22.76
2017-03-25T14:39:21.043Z,22.7
2017-03-25T14:40:30.661Z,22.72
2017-03-25T14:41:40.880Z,22.82
2017-03-25T14:42:51.108Z,22.75
2017-03-25T14:44:01.660Z,22.8
2017-03-25T14:45:11.876Z,22.72
2017-03-25T14:46:21.509Z,22.73
2017-03-25T14:47:31.735Z,22.7
2017-03-25T14:48:41.652Z,22.75
2017-03-25T14:49:52.200Z,22.7
2017-03-25T14:51:02.249Z,22.75
2017-03-25T14:52:12.169Z,22.72
2017-03-25T14:53:21.783Z,22.72
2017-03-25T14:54:32.010Z,22.73
2017-03-25T14:55:41.252Z,22.7
2017-03-25T14:56:51.486Z,22.77
2017-03-25T14:58:01.114Z,22.62
2017-03-25T14:59:11.156Z,22.72
2017-03-25T15:00:21.391Z,22.7
2017-03-25T15:01:31.465Z,22.72
2017-03-25T15:02:41.687Z,22.75
2017-03-25T15:03:51.908Z,22.67
2017-03-25T15:05:01.850Z,22.73
2017-03-25T15:06:11.769Z,22.72